EWG55UW EDDS-LGAV
Flight info
| Callsign | EWG55UW |
|---|---|
| Flight time | 2h 22m |
| Altitude | 35000 |
| Route | ROTWE7H ROTWE Y126 TUBLO N850 NATOR DCT TRA DCT ARGAX/N0454F370 DCT RESIA DCT NOSTO UN7 NEMES |
| Aircraft | A320/M-SDE3FGHIRWY/LB1 |
Departure
| Time | 2026-05-07 11:18 |
|---|---|
| Airport | Stuttgart Airport (EDDS) |
Arrival
| Time | 2026-05-07 13:40 |
|---|---|
| Airport | Athens Eleftherios Venizelos International Airport (LGAV) |
| Time | Latitude | Longitude | Altitude | Speed | Heading |
|---|---|---|---|---|---|
| 2026-05-07 11:05 | 48.68935 | 9.20153 | 1296 ft | 0 kts | 164° |
| 2026-05-07 11:14 | 48.68915 | 9.20161 | 1294 ft | 10 kts | 164° |
| 2026-05-07 11:14 | 48.68862 | 9.20142 | 1292 ft | 7 kts | 234° |
| 2026-05-07 11:15 | 48.68845 | 9.20072 | 1294 ft | 10 kts | 253° |
| 2026-05-07 11:15 | 48.68789 | 9.19973 | 1294 ft | 17 kts | 198° |
| 2026-05-07 11:15 | 48.68676 | 9.19986 | 1288 ft | 16 kts | 186° |
| 2026-05-07 11:15 | 48.68588 | 9.20026 | 1284 ft | 9 kts | 140° |
| 2026-05-07 11:16 | 48.68588 | 9.20093 | 1285 ft | 0 kts | 73° |
| 2026-05-07 11:16 | 48.68589 | 9.20096 | 1284 ft | 1 kts | 73° |
| 2026-05-07 11:17 | 48.68589 | 9.20099 | 1284 ft | 0 kts | 73° |
| 2026-05-07 11:17 | 48.68641 | 9.20352 | 1276 ft | 65 kts | 74° |
| 2026-05-07 11:17 | 48.68827 | 9.21346 | 1258 ft | 128 kts | 74° |
| 2026-05-07 11:17 | 48.69114 | 9.22884 | 1306 ft | 168 kts | 72° |
| 2026-05-07 11:18 | 48.69410 | 9.24559 | 2059 ft | 163 kts | 72° |
| 2026-05-07 11:18 | 48.69724 | 9.26249 | 2632 ft | 175 kts | 71° |
| 2026-05-07 11:18 | 48.70089 | 9.28100 | 3018 ft | 191 kts | 72° |
| 2026-05-07 11:18 | 48.70494 | 9.30132 | 3303 ft | 213 kts | 72° |
| 2026-05-07 11:19 | 48.70938 | 9.32393 | 3617 ft | 232 kts | 72° |
| 2026-05-07 11:19 | 48.71310 | 9.34886 | 4014 ft | 252 kts | 91° |
| 2026-05-07 11:19 | 48.70786 | 9.37407 | 4810 ft | 256 kts | 125° |
| 2026-05-07 11:19 | 48.69542 | 9.39287 | 5613 ft | 255 kts | 154° |
| 2026-05-07 11:20 | 48.67902 | 9.40150 | 6485 ft | 253 kts | 174° |
| 2026-05-07 11:20 | 48.66148 | 9.40248 | 7303 ft | 252 kts | 189° |
| 2026-05-07 11:20 | 48.64453 | 9.39617 | 8130 ft | 251 kts | 206° |
| 2026-05-07 11:20 | 48.62972 | 9.38239 | 8911 ft | 254 kts | 223° |
| 2026-05-07 11:21 | 48.61828 | 9.36104 | 9392 ft | 268 kts | 244° |
| 2026-05-07 11:21 | 48.61247 | 9.33411 | 10123 ft | 273 kts | 263° |
| 2026-05-07 11:21 | 48.61304 | 9.30527 | 10794 ft | 281 kts | 278° |
| 2026-05-07 11:21 | 48.61614 | 9.27488 | 11043 ft | 304 kts | 274° |
| 2026-05-07 11:22 | 48.61522 | 9.24190 | 11249 ft | 326 kts | 258° |
| 2026-05-07 11:22 | 48.60944 | 9.20805 | 11736 ft | 337 kts | 255° |
| 2026-05-07 11:22 | 48.60328 | 9.17359 | 12408 ft | 342 kts | 255° |
| 2026-05-07 11:22 | 48.59703 | 9.13871 | 13104 ft | 346 kts | 255° |
| 2026-05-07 11:23 | 48.59071 | 9.10349 | 13821 ft | 349 kts | 255° |
| 2026-05-07 11:23 | 48.58441 | 9.06835 | 14451 ft | 353 kts | 255° |
| 2026-05-07 11:23 | 48.57797 | 9.03247 | 15078 ft | 356 kts | 255° |
| 2026-05-07 11:23 | 48.57147 | 8.99622 | 15699 ft | 359 kts | 255° |
| 2026-05-07 11:24 | 48.56495 | 8.95966 | 16314 ft | 362 kts | 255° |
| 2026-05-07 11:24 | 48.55837 | 8.92281 | 16924 ft | 365 kts | 255° |
| 2026-05-07 11:24 | 48.55165 | 8.88556 | 17524 ft | 369 kts | 255° |
| 2026-05-07 11:24 | 48.54484 | 8.84801 | 18118 ft | 372 kts | 256° |
| 2026-05-07 11:25 | 48.53798 | 8.81022 | 18638 ft | 375 kts | 255° |
| 2026-05-07 11:25 | 48.53101 | 8.77211 | 19131 ft | 378 kts | 255° |
| 2026-05-07 11:25 | 48.52396 | 8.73371 | 19619 ft | 381 kts | 255° |
| 2026-05-07 11:25 | 48.51686 | 8.69495 | 20116 ft | 384 kts | 256° |
| 2026-05-07 11:26 | 48.50976 | 8.65590 | 20609 ft | 387 kts | 255° |
| 2026-05-07 11:26 | 48.50263 | 8.61663 | 21101 ft | 390 kts | 255° |
| 2026-05-07 11:26 | 48.49546 | 8.57711 | 21583 ft | 392 kts | 255° |
| 2026-05-07 11:26 | 48.48812 | 8.53737 | 22051 ft | 395 kts | 253° |
| 2026-05-07 11:27 | 48.47732 | 8.49906 | 22495 ft | 399 kts | 242° |
| 2026-05-07 11:27 | 48.46744 | 8.47561 | 22807 ft | 402 kts | 235° |
| 2026-05-07 11:27 | 48.44217 | 8.43531 | 23371 ft | 409 kts | 220° |
| 2026-05-07 11:27 | 48.41840 | 8.41137 | 23777 ft | 414 kts | 210° |
| 2026-05-07 11:28 | 48.40115 | 8.39900 | 24019 ft | 416 kts | 204° |
| 2026-05-07 11:28 | 48.36419 | 8.38253 | 24529 ft | 422 kts | 193° |
| 2026-05-07 11:28 | 48.33536 | 8.37351 | 24892 ft | 424 kts | 193° |
| 2026-05-07 11:28 | 48.30636 | 8.36438 | 25243 ft | 427 kts | 193° |
| 2026-05-07 11:29 | 48.27723 | 8.35521 | 25596 ft | 429 kts | 193° |
| 2026-05-07 11:29 | 48.25782 | 8.34908 | 25839 ft | 430 kts | 193° |
| 2026-05-07 11:29 | 48.22848 | 8.33978 | 26194 ft | 432 kts | 193° |
| 2026-05-07 11:29 | 48.19894 | 8.33060 | 26547 ft | 435 kts | 191° |
| 2026-05-07 11:30 | 48.15843 | 8.32634 | 27000 ft | 439 kts | 179° |
| 2026-05-07 11:30 | 48.13823 | 8.32905 | 27216 ft | 442 kts | 172° |
| 2026-05-07 11:30 | 48.10781 | 8.33650 | 27544 ft | 444 kts | 172° |
| 2026-05-07 11:30 | 48.07723 | 8.34401 | 27856 ft | 446 kts | 172° |
| 2026-05-07 11:31 | 48.04654 | 8.35145 | 28197 ft | 448 kts | 172° |
| 2026-05-07 11:31 | 48.01565 | 8.35885 | 28500 ft | 450 kts | 172° |
| 2026-05-07 11:31 | 47.98470 | 8.36623 | 28793 ft | 452 kts | 172° |
| 2026-05-07 11:31 | 47.95358 | 8.37366 | 29077 ft | 454 kts | 172° |
| 2026-05-07 11:32 | 47.89093 | 8.38878 | 29633 ft | 457 kts | 172° |
| 2026-05-07 11:32 | 47.85949 | 8.39637 | 29971 ft | 458 kts | 171° |
| 2026-05-07 11:32 | 47.82813 | 8.40392 | 30383 ft | 455 kts | 172° |
| 2026-05-07 11:33 | 47.79724 | 8.41129 | 30687 ft | 456 kts | 172° |
| 2026-05-07 11:33 | 47.76594 | 8.41871 | 31003 ft | 455 kts | 173° |
| 2026-05-07 11:33 | 47.73473 | 8.42692 | 31300 ft | 456 kts | 168° |
| 2026-05-07 11:33 | 47.70448 | 8.44124 | 31613 ft | 458 kts | 158° |
| 2026-05-07 11:34 | 47.67606 | 8.46263 | 31907 ft | 460 kts | 149° |
| 2026-05-07 11:34 | 47.65025 | 8.49067 | 32204 ft | 461 kts | 140° |
| 2026-05-07 11:34 | 47.62668 | 8.52299 | 32506 ft | 462 kts | 138° |
| 2026-05-07 11:34 | 47.60318 | 8.55535 | 32803 ft | 462 kts | 139° |
| 2026-05-07 11:35 | 47.57952 | 8.58767 | 33097 ft | 462 kts | 139° |
| 2026-05-07 11:35 | 47.55580 | 8.61980 | 33396 ft | 462 kts | 139° |
| 2026-05-07 11:35 | 47.53203 | 8.65186 | 33704 ft | 463 kts | 139° |
| 2026-05-07 11:35 | 47.50825 | 8.68396 | 34007 ft | 463 kts | 139° |
| 2026-05-07 11:36 | 47.48450 | 8.71610 | 34265 ft | 463 kts | 140° |
| 2026-05-07 11:36 | 47.46075 | 8.74826 | 34507 ft | 464 kts | 140° |
| 2026-05-07 11:36 | 47.43716 | 8.78015 | 34732 ft | 464 kts | 140° |
| 2026-05-07 11:36 | 47.41338 | 8.81227 | 34979 ft | 464 kts | 140° |
| 2026-05-07 11:37 | 47.38951 | 8.84445 | 35229 ft | 464 kts | 140° |
| 2026-05-07 11:37 | 47.36569 | 8.87654 | 35482 ft | 463 kts | 140° |
| 2026-05-07 11:37 | 47.34189 | 8.90860 | 35709 ft | 463 kts | 140° |
| 2026-05-07 11:37 | 47.31811 | 8.94056 | 35947 ft | 463 kts | 140° |
| 2026-05-07 11:38 | 47.29430 | 8.97249 | 36183 ft | 462 kts | 140° |
| 2026-05-07 11:38 | 47.27053 | 9.00431 | 36403 ft | 462 kts | 140° |
| 2026-05-07 11:38 | 47.24670 | 9.03620 | 36621 ft | 462 kts | 140° |
| 2026-05-07 11:38 | 47.22288 | 9.06802 | 36823 ft | 462 kts | 141° |
| 2026-05-07 11:39 | 47.19905 | 9.09982 | 36995 ft | 463 kts | 141° |
| 2026-05-07 11:39 | 47.15216 | 9.16239 | 37050 ft | 465 kts | 141° |
| 2026-05-07 11:40 | 47.10420 | 9.22620 | 37043 ft | 465 kts | 141° |
| 2026-05-07 11:40 | 47.05651 | 9.28946 | 37039 ft | 465 kts | 141° |
| 2026-05-07 11:41 | 47.00853 | 9.35290 | 37035 ft | 464 kts | 141° |
| 2026-05-07 11:41 | 46.96042 | 9.41621 | 37028 ft | 465 kts | 141° |
| 2026-05-07 11:42 | 46.91230 | 9.47954 | 37024 ft | 466 kts | 141° |
| 2026-05-07 11:42 | 46.86414 | 9.54283 | 37030 ft | 466 kts | 141° |
| 2026-05-07 11:43 | 46.81578 | 9.60606 | 37028 ft | 466 kts | 141° |
| 2026-05-07 11:43 | 46.76748 | 9.66918 | 37020 ft | 466 kts | 142° |
| 2026-05-07 11:44 | 46.71919 | 9.73217 | 37025 ft | 466 kts | 142° |
| 2026-05-07 11:44 | 46.67080 | 9.79506 | 37024 ft | 466 kts | 142° |
| 2026-05-07 11:45 | 46.62236 | 9.85777 | 37036 ft | 466 kts | 142° |
| 2026-05-07 11:45 | 46.57388 | 9.92029 | 37036 ft | 466 kts | 142° |
| 2026-05-07 11:46 | 46.52538 | 9.98273 | 37021 ft | 466 kts | 142° |
| 2026-05-07 11:46 | 46.47742 | 10.04514 | 37018 ft | 468 kts | 138° |
| 2026-05-07 11:47 | 46.43317 | 10.11483 | 36999 ft | 469 kts | 136° |
| 2026-05-07 11:47 | 46.38913 | 10.18460 | 36995 ft | 469 kts | 136° |
| 2026-05-07 11:48 | 46.34504 | 10.25440 | 37013 ft | 469 kts | 136° |
| 2026-05-07 11:48 | 46.30094 | 10.32393 | 37019 ft | 469 kts | 137° |
| 2026-05-07 11:49 | 46.25705 | 10.39289 | 37019 ft | 469 kts | 137° |
| 2026-05-07 11:49 | 46.21284 | 10.46213 | 37015 ft | 469 kts | 137° |
| 2026-05-07 11:50 | 46.16863 | 10.53131 | 37027 ft | 468 kts | 137° |
| 2026-05-07 11:50 | 46.12447 | 10.60025 | 37032 ft | 468 kts | 137° |
| 2026-05-07 11:51 | 46.08023 | 10.66900 | 37028 ft | 467 kts | 137° |
| 2026-05-07 11:51 | 46.03600 | 10.73758 | 37028 ft | 468 kts | 137° |
| 2026-05-07 11:52 | 45.99168 | 10.80627 | 37026 ft | 468 kts | 137° |
| 2026-05-07 11:52 | 45.94738 | 10.87473 | 37043 ft | 468 kts | 137° |
| 2026-05-07 11:53 | 45.90303 | 10.94302 | 37039 ft | 467 kts | 138° |
| 2026-05-07 11:53 | 45.85880 | 11.01080 | 37035 ft | 467 kts | 138° |
| 2026-05-07 11:54 | 45.81441 | 11.07885 | 36997 ft | 466 kts | 138° |
| 2026-05-07 11:54 | 45.76995 | 11.14690 | 37028 ft | 468 kts | 138° |
| 2026-05-07 11:55 | 45.72540 | 11.21496 | 37016 ft | 468 kts | 139° |
| 2026-05-07 11:55 | 45.68072 | 11.28286 | 37033 ft | 468 kts | 139° |
| 2026-05-07 11:56 | 45.63629 | 11.35014 | 37031 ft | 468 kts | 139° |
| 2026-05-07 11:56 | 45.59131 | 11.41822 | 36994 ft | 468 kts | 139° |
| 2026-05-07 11:57 | 45.54681 | 11.48544 | 37000 ft | 468 kts | 139° |
| 2026-05-07 11:57 | 45.50194 | 11.55292 | 36999 ft | 469 kts | 139° |
| 2026-05-07 11:58 | 45.45702 | 11.62036 | 36995 ft | 469 kts | 139° |
| 2026-05-07 11:58 | 45.41206 | 11.68790 | 37005 ft | 470 kts | 139° |
| 2026-05-07 11:59 | 45.36726 | 11.75487 | 36996 ft | 470 kts | 139° |
| 2026-05-07 11:59 | 45.32218 | 11.82206 | 36996 ft | 470 kts | 139° |
| 2026-05-07 12:00 | 45.27707 | 11.88924 | 36998 ft | 469 kts | 140° |
| 2026-05-07 12:00 | 45.23184 | 11.95623 | 37001 ft | 470 kts | 140° |
| 2026-05-07 12:01 | 45.18662 | 12.02311 | 36984 ft | 470 kts | 140° |
| 2026-05-07 12:01 | 45.14134 | 12.08994 | 36997 ft | 470 kts | 140° |
| 2026-05-07 12:02 | 45.09609 | 12.15659 | 36976 ft | 470 kts | 140° |
| 2026-05-07 12:02 | 45.05079 | 12.22324 | 36983 ft | 470 kts | 140° |
| 2026-05-07 12:03 | 45.00566 | 12.28941 | 37001 ft | 471 kts | 140° |
| 2026-05-07 12:03 | 44.96017 | 12.35593 | 37001 ft | 471 kts | 140° |
| 2026-05-07 12:04 | 44.91465 | 12.42225 | 37013 ft | 470 kts | 140° |
| 2026-05-07 12:04 | 44.86910 | 12.48855 | 36998 ft | 470 kts | 140° |
| 2026-05-07 12:05 | 44.82355 | 12.55470 | 37001 ft | 471 kts | 140° |
| 2026-05-07 12:05 | 44.77788 | 12.62078 | 36981 ft | 471 kts | 141° |
| 2026-05-07 12:06 | 44.73283 | 12.68578 | 37003 ft | 471 kts | 141° |
| 2026-05-07 12:06 | 44.68713 | 12.75174 | 37014 ft | 471 kts | 141° |
| 2026-05-07 12:07 | 44.64131 | 12.81758 | 37008 ft | 471 kts | 141° |
| 2026-05-07 12:07 | 44.59548 | 12.88323 | 37013 ft | 471 kts | 141° |
| 2026-05-07 12:08 | 44.54962 | 12.94891 | 37002 ft | 471 kts | 141° |
| 2026-05-07 12:08 | 44.50372 | 13.01443 | 37017 ft | 470 kts | 141° |
| 2026-05-07 12:09 | 44.45811 | 13.07933 | 37023 ft | 470 kts | 141° |
| 2026-05-07 12:09 | 44.41216 | 13.14453 | 37007 ft | 470 kts | 141° |
| 2026-05-07 12:10 | 44.36620 | 13.20960 | 36993 ft | 470 kts | 141° |
| 2026-05-07 12:10 | 44.32024 | 13.27478 | 37011 ft | 470 kts | 141° |
| 2026-05-07 12:11 | 44.27422 | 13.33972 | 37007 ft | 470 kts | 141° |
| 2026-05-07 12:11 | 44.22812 | 13.40445 | 37020 ft | 470 kts | 141° |
| 2026-05-07 12:12 | 44.18203 | 13.46917 | 36999 ft | 470 kts | 141° |
| 2026-05-07 12:12 | 44.13590 | 13.53383 | 37008 ft | 470 kts | 141° |
| 2026-05-07 12:13 | 44.09006 | 13.59791 | 37017 ft | 470 kts | 141° |
| 2026-05-07 12:13 | 44.04380 | 13.66237 | 37029 ft | 470 kts | 141° |
| 2026-05-07 12:14 | 43.99760 | 13.72655 | 37034 ft | 469 kts | 141° |
| 2026-05-07 12:14 | 43.95139 | 13.79071 | 37042 ft | 469 kts | 141° |
| 2026-05-07 12:15 | 43.90519 | 13.85471 | 37039 ft | 470 kts | 141° |
| 2026-05-07 12:15 | 43.85894 | 13.91858 | 37041 ft | 469 kts | 141° |
| 2026-05-07 12:16 | 43.81307 | 13.98184 | 37042 ft | 468 kts | 141° |
| 2026-05-07 12:16 | 43.76749 | 14.04442 | 37042 ft | 468 kts | 142° |
| 2026-05-07 12:17 | 43.72126 | 14.10778 | 37012 ft | 468 kts | 141° |
| 2026-05-07 12:17 | 43.67493 | 14.17112 | 37016 ft | 469 kts | 141° |
| 2026-05-07 12:18 | 43.62856 | 14.23443 | 37009 ft | 469 kts | 141° |
| 2026-05-07 12:18 | 43.58209 | 14.29765 | 37023 ft | 469 kts | 141° |
| 2026-05-07 12:19 | 43.53563 | 14.36079 | 37030 ft | 469 kts | 141° |
| 2026-05-07 12:19 | 43.48916 | 14.42396 | 37005 ft | 469 kts | 141° |
| 2026-05-07 12:20 | 43.44254 | 14.48705 | 37008 ft | 470 kts | 141° |
| 2026-05-07 12:20 | 43.39604 | 14.54978 | 37014 ft | 471 kts | 141° |
| 2026-05-07 12:21 | 43.34918 | 14.61288 | 37017 ft | 471 kts | 142° |
| 2026-05-07 12:21 | 43.30228 | 14.67586 | 37030 ft | 472 kts | 142° |
| 2026-05-07 12:22 | 43.26325 | 14.72822 | 37005 ft | 472 kts | 142° |
| 2026-05-07 12:22 | 43.21623 | 14.79116 | 37008 ft | 473 kts | 142° |
| 2026-05-07 12:23 | 43.16907 | 14.85417 | 37006 ft | 473 kts | 142° |
| 2026-05-07 12:23 | 43.12184 | 14.91686 | 37014 ft | 473 kts | 142° |
| 2026-05-07 12:24 | 43.07458 | 14.97956 | 36997 ft | 473 kts | 142° |
| 2026-05-07 12:24 | 43.02734 | 15.04231 | 36981 ft | 474 kts | 142° |
| 2026-05-07 12:25 | 42.98033 | 15.10463 | 36997 ft | 474 kts | 142° |
| 2026-05-07 12:25 | 42.93290 | 15.16732 | 37003 ft | 475 kts | 142° |
| 2026-05-07 12:26 | 42.88533 | 15.22996 | 37009 ft | 475 kts | 142° |
| 2026-05-07 12:26 | 42.83772 | 15.29255 | 37007 ft | 475 kts | 142° |
| 2026-05-07 12:27 | 42.79000 | 15.35508 | 36987 ft | 476 kts | 142° |
| 2026-05-07 12:27 | 42.74223 | 15.41748 | 37000 ft | 477 kts | 142° |
| 2026-05-07 12:28 | 42.69426 | 15.48001 | 37005 ft | 477 kts | 142° |
| 2026-05-07 12:28 | 42.64629 | 15.54247 | 37019 ft | 478 kts | 142° |
| 2026-05-07 12:29 | 42.59851 | 15.60455 | 37030 ft | 478 kts | 142° |
| 2026-05-07 12:29 | 42.55044 | 15.66684 | 37008 ft | 478 kts | 142° |
| 2026-05-07 12:30 | 42.50235 | 15.72911 | 37000 ft | 478 kts | 142° |
| 2026-05-07 12:30 | 42.45411 | 15.79135 | 37010 ft | 479 kts | 142° |
| 2026-05-07 12:31 | 42.40580 | 15.85348 | 37015 ft | 479 kts | 142° |
| 2026-05-07 12:31 | 42.35754 | 15.91552 | 37019 ft | 479 kts | 142° |
| 2026-05-07 12:32 | 42.30917 | 15.97760 | 37025 ft | 479 kts | 142° |
| 2026-05-07 12:32 | 42.26070 | 16.03962 | 37013 ft | 481 kts | 142° |
| 2026-05-07 12:33 | 42.18777 | 16.13266 | 37025 ft | 481 kts | 142° |
| 2026-05-07 12:33 | 42.13995 | 16.19352 | 37029 ft | 481 kts | 142° |
| 2026-05-07 12:34 | 42.09120 | 16.25542 | 37032 ft | 481 kts | 142° |
| 2026-05-07 12:34 | 42.04241 | 16.31716 | 37017 ft | 481 kts | 142° |
| 2026-05-07 12:35 | 41.99352 | 16.37878 | 37003 ft | 482 kts | 142° |
| 2026-05-07 12:35 | 41.94491 | 16.44003 | 37019 ft | 482 kts | 142° |
| 2026-05-07 12:36 | 41.89594 | 16.50166 | 37032 ft | 482 kts | 142° |
| 2026-05-07 12:36 | 41.84696 | 16.56320 | 37034 ft | 482 kts | 142° |
| 2026-05-07 12:37 | 41.79786 | 16.62466 | 37013 ft | 482 kts | 142° |
| 2026-05-07 12:37 | 41.74874 | 16.68605 | 37022 ft | 483 kts | 142° |
| 2026-05-07 12:38 | 41.69954 | 16.74743 | 37001 ft | 484 kts | 142° |
| 2026-05-07 12:38 | 41.65056 | 16.80836 | 37024 ft | 484 kts | 142° |
| 2026-05-07 12:39 | 41.60114 | 16.86968 | 37029 ft | 484 kts | 142° |
| 2026-05-07 12:39 | 41.55166 | 16.93095 | 37040 ft | 485 kts | 142° |
| 2026-05-07 12:40 | 41.50221 | 16.99221 | 37042 ft | 485 kts | 142° |
| 2026-05-07 12:40 | 41.45268 | 17.05329 | 37050 ft | 485 kts | 142° |
| 2026-05-07 12:41 | 41.40309 | 17.11433 | 37055 ft | 485 kts | 142° |
| 2026-05-07 12:41 | 41.35349 | 17.17523 | 37056 ft | 485 kts | 142° |
| 2026-05-07 12:42 | 41.30392 | 17.23595 | 37025 ft | 485 kts | 142° |
| 2026-05-07 12:42 | 41.25423 | 17.29671 | 37026 ft | 486 kts | 143° |
| 2026-05-07 12:43 | 41.20431 | 17.35749 | 37036 ft | 487 kts | 143° |
| 2026-05-07 12:43 | 41.15431 | 17.41838 | 37037 ft | 488 kts | 142° |
| 2026-05-07 12:44 | 41.10459 | 17.47879 | 37052 ft | 488 kts | 142° |
| 2026-05-07 12:44 | 41.05448 | 17.53954 | 37059 ft | 488 kts | 142° |
| 2026-05-07 12:45 | 41.00439 | 17.60026 | 37030 ft | 489 kts | 143° |
| 2026-05-07 12:45 | 40.95394 | 17.66105 | 37039 ft | 490 kts | 143° |
| 2026-05-07 12:46 | 40.90341 | 17.72194 | 37039 ft | 491 kts | 143° |
| 2026-05-07 12:46 | 40.85315 | 17.78238 | 37056 ft | 492 kts | 142° |
| 2026-05-07 12:47 | 40.80257 | 17.84310 | 37067 ft | 491 kts | 142° |
| 2026-05-07 12:47 | 40.75190 | 17.90372 | 37031 ft | 492 kts | 143° |
| 2026-05-07 12:48 | 40.70098 | 17.96446 | 37033 ft | 494 kts | 143° |
| 2026-05-07 12:48 | 40.64993 | 18.02522 | 37038 ft | 495 kts | 143° |
| 2026-05-07 12:49 | 40.59871 | 18.08603 | 37043 ft | 496 kts | 143° |
| 2026-05-07 12:49 | 40.54749 | 18.14685 | 37049 ft | 496 kts | 143° |
| 2026-05-07 12:50 | 40.49609 | 18.20766 | 37025 ft | 498 kts | 144° |
| 2026-05-07 12:50 | 40.44441 | 18.26872 | 37045 ft | 500 kts | 144° |
| 2026-05-07 12:51 | 40.39254 | 18.32995 | 37051 ft | 502 kts | 144° |
| 2026-05-07 12:51 | 40.34047 | 18.39122 | 37056 ft | 503 kts | 144° |
| 2026-05-07 12:52 | 40.28860 | 18.45216 | 37065 ft | 504 kts | 144° |
| 2026-05-07 12:52 | 40.23628 | 18.51334 | 37040 ft | 506 kts | 144° |
| 2026-05-07 12:53 | 40.18356 | 18.57487 | 37046 ft | 509 kts | 144° |
| 2026-05-07 12:53 | 40.13062 | 18.63659 | 37053 ft | 510 kts | 144° |
| 2026-05-07 12:54 | 40.07764 | 18.69842 | 37063 ft | 511 kts | 144° |
| 2026-05-07 12:54 | 40.02447 | 18.76005 | 37068 ft | 511 kts | 145° |
| 2026-05-07 12:55 | 39.97110 | 18.82172 | 37047 ft | 513 kts | 144° |
| 2026-05-07 12:55 | 39.91763 | 18.88354 | 37058 ft | 515 kts | 144° |
| 2026-05-07 12:56 | 39.86394 | 18.94547 | 37061 ft | 516 kts | 144° |
| 2026-05-07 12:56 | 39.81207 | 19.00973 | 37066 ft | 523 kts | 135° |
| 2026-05-07 12:57 | 39.76898 | 19.08660 | 37073 ft | 529 kts | 123° |
| 2026-05-07 12:57 | 39.73486 | 19.17171 | 37078 ft | 531 kts | 118° |
| 2026-05-07 12:58 | 39.70141 | 19.25737 | 37038 ft | 533 kts | 119° |
| 2026-05-07 12:58 | 39.66776 | 19.34357 | 37042 ft | 537 kts | 119° |
| 2026-05-07 12:59 | 39.63381 | 19.43003 | 37049 ft | 539 kts | 119° |
| 2026-05-07 12:59 | 39.59963 | 19.51654 | 37086 ft | 539 kts | 119° |
| 2026-05-07 13:00 | 39.56568 | 19.60242 | 37092 ft | 537 kts | 118° |
| 2026-05-07 13:00 | 39.53158 | 19.68851 | 37099 ft | 537 kts | 119° |
| 2026-05-07 13:01 | 39.49732 | 19.77443 | 37103 ft | 536 kts | 119° |
| 2026-05-07 13:01 | 39.46311 | 19.85995 | 37094 ft | 534 kts | 119° |
| 2026-05-07 13:02 | 39.42898 | 19.94532 | 37091 ft | 533 kts | 119° |
| 2026-05-07 13:02 | 39.39482 | 20.03050 | 37094 ft | 533 kts | 119° |
| 2026-05-07 13:03 | 39.36067 | 20.11550 | 37086 ft | 533 kts | 119° |
| 2026-05-07 13:03 | 39.32656 | 20.19992 | 37051 ft | 533 kts | 119° |
| 2026-05-07 13:04 | 39.29212 | 20.28510 | 37051 ft | 536 kts | 119° |
| 2026-05-07 13:04 | 39.25745 | 20.37057 | 37056 ft | 538 kts | 119° |
| 2026-05-07 13:05 | 39.22270 | 20.45609 | 37058 ft | 539 kts | 120° |
| 2026-05-07 13:05 | 39.18783 | 20.54157 | 37107 ft | 538 kts | 120° |
| 2026-05-07 13:06 | 39.15302 | 20.62670 | 37118 ft | 536 kts | 120° |
| 2026-05-07 13:06 | 39.11821 | 20.71159 | 37120 ft | 535 kts | 120° |
| 2026-05-07 13:07 | 39.08339 | 20.79621 | 37113 ft | 535 kts | 120° |
| 2026-05-07 13:07 | 39.04858 | 20.88059 | 37136 ft | 533 kts | 120° |
| 2026-05-07 13:08 | 39.01374 | 20.96476 | 37130 ft | 532 kts | 120° |
| 2026-05-07 13:08 | 38.97922 | 21.04808 | 37126 ft | 531 kts | 120° |
| 2026-05-07 13:09 | 38.94440 | 21.13173 | 37079 ft | 531 kts | 120° |
| 2026-05-07 13:09 | 38.90933 | 21.21567 | 37100 ft | 534 kts | 120° |
| 2026-05-07 13:10 | 38.87417 | 21.29978 | 37107 ft | 534 kts | 120° |
| 2026-05-07 13:10 | 38.83903 | 21.38376 | 37107 ft | 535 kts | 120° |
| 2026-05-07 13:11 | 38.80370 | 21.46776 | 37108 ft | 535 kts | 120° |
| 2026-05-07 13:11 | 38.76841 | 21.55179 | 37119 ft | 536 kts | 120° |
| 2026-05-07 13:12 | 38.73298 | 21.63567 | 37095 ft | 535 kts | 120° |
| 2026-05-07 13:12 | 38.69738 | 21.71956 | 37109 ft | 536 kts | 120° |
| 2026-05-07 13:13 | 38.66775 | 21.78926 | 37098 ft | 537 kts | 120° |
| 2026-05-07 13:13 | 38.62629 | 21.88655 | 37137 ft | 535 kts | 121° |
| 2026-05-07 13:14 | 38.59064 | 21.97004 | 37137 ft | 534 kts | 121° |
| 2026-05-07 13:14 | 38.55502 | 22.05325 | 37137 ft | 533 kts | 121° |
| 2026-05-07 13:15 | 38.52574 | 22.12145 | 37135 ft | 533 kts | 121° |
| 2026-05-07 13:15 | 38.49006 | 22.20434 | 37128 ft | 531 kts | 121° |
| 2026-05-07 13:16 | 38.45442 | 22.28697 | 37135 ft | 531 kts | 121° |
| 2026-05-07 13:16 | 38.41872 | 22.36942 | 37140 ft | 531 kts | 121° |
| 2026-05-07 13:17 | 38.38305 | 22.45175 | 37129 ft | 530 kts | 121° |
| 2026-05-07 13:17 | 38.34739 | 22.53384 | 37145 ft | 529 kts | 121° |
| 2026-05-07 13:18 | 38.31196 | 22.61505 | 37138 ft | 527 kts | 121° |
| 2026-05-07 13:18 | 38.27625 | 22.69652 | 37136 ft | 526 kts | 121° |
| 2026-05-07 13:19 | 38.24063 | 22.77780 | 37125 ft | 526 kts | 121° |
| 2026-05-07 13:19 | 38.22286 | 22.81835 | 36782 ft | 523 kts | 121° |
| 2026-05-07 13:19 | 38.20516 | 22.85869 | 36117 ft | 522 kts | 121° |
| 2026-05-07 13:20 | 38.18742 | 22.89901 | 35435 ft | 522 kts | 121° |
| 2026-05-07 13:20 | 38.16967 | 22.93928 | 34750 ft | 522 kts | 121° |
| 2026-05-07 13:20 | 38.15188 | 22.97963 | 34055 ft | 522 kts | 121° |
| 2026-05-07 13:20 | 38.13415 | 23.01978 | 33234 ft | 522 kts | 121° |
| 2026-05-07 13:21 | 38.11636 | 23.06005 | 32430 ft | 522 kts | 121° |
| 2026-05-07 13:21 | 38.09858 | 23.10021 | 31642 ft | 521 kts | 121° |
| 2026-05-07 13:21 | 38.08081 | 23.14023 | 30907 ft | 519 kts | 121° |
| 2026-05-07 13:21 | 38.06310 | 23.18006 | 30159 ft | 517 kts | 121° |
| 2026-05-07 13:22 | 38.04550 | 23.21957 | 29490 ft | 511 kts | 121° |
| 2026-05-07 13:22 | 38.02810 | 23.25859 | 28862 ft | 504 kts | 121° |
| 2026-05-07 13:22 | 38.01093 | 23.29702 | 28230 ft | 498 kts | 121° |
| 2026-05-07 13:22 | 37.99398 | 23.33500 | 27617 ft | 491 kts | 121° |
| 2026-05-07 13:23 | 37.97728 | 23.37240 | 27039 ft | 485 kts | 121° |
| 2026-05-07 13:23 | 37.96074 | 23.40941 | 26458 ft | 479 kts | 121° |
| 2026-05-07 13:23 | 37.94438 | 23.44588 | 25893 ft | 474 kts | 121° |
| 2026-05-07 13:23 | 37.92836 | 23.48147 | 25344 ft | 468 kts | 121° |
| 2026-05-07 13:24 | 37.91234 | 23.51713 | 24822 ft | 462 kts | 121° |
| 2026-05-07 13:24 | 37.89658 | 23.55229 | 24289 ft | 456 kts | 121° |
| 2026-05-07 13:24 | 37.88101 | 23.58706 | 23766 ft | 451 kts | 121° |
| 2026-05-07 13:24 | 37.86560 | 23.62135 | 23164 ft | 445 kts | 121° |
| 2026-05-07 13:25 | 37.85033 | 23.65524 | 22555 ft | 441 kts | 121° |
| 2026-05-07 13:25 | 37.83518 | 23.68870 | 21973 ft | 436 kts | 121° |
| 2026-05-07 13:25 | 37.82017 | 23.72185 | 21400 ft | 432 kts | 122° |
| 2026-05-07 13:25 | 37.80532 | 23.75471 | 20839 ft | 428 kts | 122° |
| 2026-05-07 13:26 | 37.79059 | 23.78724 | 20312 ft | 424 kts | 122° |
| 2026-05-07 13:26 | 37.77630 | 23.81911 | 19768 ft | 421 kts | 121° |
| 2026-05-07 13:26 | 37.76203 | 23.85117 | 19245 ft | 418 kts | 121° |
| 2026-05-07 13:26 | 37.74787 | 23.88309 | 18740 ft | 414 kts | 121° |
| 2026-05-07 13:27 | 37.73384 | 23.91475 | 18217 ft | 411 kts | 121° |
| 2026-05-07 13:27 | 37.71990 | 23.94610 | 17678 ft | 408 kts | 121° |
| 2026-05-07 13:27 | 37.70597 | 23.97720 | 17148 ft | 405 kts | 121° |
| 2026-05-07 13:27 | 37.69301 | 24.00856 | 16613 ft | 403 kts | 111° |
| 2026-05-07 13:28 | 37.68737 | 24.04293 | 16132 ft | 400 kts | 91° |
| 2026-05-07 13:28 | 37.69092 | 24.07730 | 15662 ft | 393 kts | 71° |
| 2026-05-07 13:28 | 37.70062 | 24.10930 | 15200 ft | 389 kts | 65° |
| 2026-05-07 13:28 | 37.71092 | 24.14073 | 14747 ft | 386 kts | 65° |
| 2026-05-07 13:29 | 37.72114 | 24.17191 | 14293 ft | 382 kts | 65° |
| 2026-05-07 13:29 | 37.73111 | 24.20238 | 13844 ft | 379 kts | 65° |
| 2026-05-07 13:29 | 37.74114 | 24.23303 | 13328 ft | 375 kts | 65° |
| 2026-05-07 13:29 | 37.75351 | 24.26155 | 12843 ft | 367 kts | 49° |
| 2026-05-07 13:30 | 37.77227 | 24.28250 | 12343 ft | 357 kts | 29° |
| 2026-05-07 13:30 | 37.79387 | 24.29773 | 11794 ft | 354 kts | 26° |
| 2026-05-07 13:30 | 37.81557 | 24.31215 | 11268 ft | 351 kts | 25° |
| 2026-05-07 13:30 | 37.83720 | 24.32633 | 10757 ft | 349 kts | 25° |
| 2026-05-07 13:31 | 37.85839 | 24.34008 | 10408 ft | 330 kts | 25° |
| 2026-05-07 13:31 | 37.87799 | 24.35286 | 10274 ft | 305 kts | 25° |
| 2026-05-07 13:31 | 37.89629 | 24.36513 | 9843 ft | 293 kts | 27° |
| 2026-05-07 13:31 | 37.91489 | 24.37462 | 9205 ft | 285 kts | 8° |
| 2026-05-07 13:32 | 37.93426 | 24.37353 | 8558 ft | 277 kts | 342° |
| 2026-05-07 13:32 | 37.95239 | 24.36528 | 7828 ft | 277 kts | 335° |
| 2026-05-07 13:32 | 37.97026 | 24.35611 | 7145 ft | 277 kts | 336° |
| 2026-05-07 13:32 | 37.98784 | 24.34689 | 6505 ft | 277 kts | 335° |
| 2026-05-07 13:33 | 38.00382 | 24.33404 | 5884 ft | 270 kts | 311° |
| 2026-05-07 13:33 | 38.01611 | 24.31613 | 5195 ft | 271 kts | 306° |
| 2026-05-07 13:33 | 38.02799 | 24.29747 | 4789 ft | 271 kts | 306° |
| 2026-05-07 13:33 | 38.03967 | 24.27881 | 4415 ft | 269 kts | 305° |
| 2026-05-07 13:34 | 38.05124 | 24.26018 | 4013 ft | 268 kts | 305° |
| 2026-05-07 13:34 | 38.07438 | 24.22343 | 3218 ft | 265 kts | 305° |
| 2026-05-07 13:34 | 38.08570 | 24.20504 | 2992 ft | 263 kts | 299° |
| 2026-05-07 13:35 | 38.09188 | 24.18368 | 2994 ft | 259 kts | 278° |
| 2026-05-07 13:35 | 38.09480 | 24.16116 | 2998 ft | 255 kts | 275° |
| 2026-05-07 13:35 | 38.09681 | 24.13975 | 2993 ft | 234 kts | 266° |
| 2026-05-07 13:35 | 38.09434 | 24.12010 | 2998 ft | 222 kts | 249° |
| 2026-05-07 13:36 | 38.08764 | 24.10340 | 2997 ft | 204 kts | 232° |
| 2026-05-07 13:36 | 38.07814 | 24.09075 | 2997 ft | 198 kts | 218° |
| 2026-05-07 13:36 | 38.06716 | 24.08028 | 2992 ft | 197 kts | 216° |
| 2026-05-07 13:36 | 38.05618 | 24.06977 | 2837 ft | 198 kts | 216° |
| 2026-05-07 13:37 | 38.04508 | 24.05915 | 2610 ft | 201 kts | 217° |
| 2026-05-07 13:37 | 38.03409 | 24.04865 | 2351 ft | 192 kts | 217° |
| 2026-05-07 13:37 | 38.02403 | 24.03903 | 2126 ft | 170 kts | 216° |
| 2026-05-07 13:37 | 38.01524 | 24.03063 | 1922 ft | 148 kts | 216° |
| 2026-05-07 13:38 | 38.00739 | 24.02314 | 1721 ft | 137 kts | 215° |
| 2026-05-07 13:38 | 37.99993 | 24.01603 | 1554 ft | 133 kts | 213° |
| 2026-05-07 13:38 | 37.99254 | 24.00898 | 1363 ft | 133 kts | 216° |
| 2026-05-07 13:38 | 37.98510 | 24.00188 | 1188 ft | 134 kts | 215° |
| 2026-05-07 13:39 | 37.97773 | 23.99485 | 1016 ft | 132 kts | 217° |
| 2026-05-07 13:39 | 37.97042 | 23.98789 | 842 ft | 132 kts | 215° |
| 2026-05-07 13:39 | 37.96316 | 23.98097 | 666 ft | 131 kts | 220° |
| 2026-05-07 13:39 | 37.95589 | 23.97405 | 501 ft | 133 kts | 215° |
| 2026-05-07 13:40 | 37.94854 | 23.96705 | 320 ft | 131 kts | 216° |
| 2026-05-07 13:40 | 37.94200 | 23.96081 | 289 ft | 97 kts | 217° |
| 2026-05-07 13:40 | 37.93800 | 23.95699 | 279 ft | 50 kts | 217° |
| 2026-05-07 13:40 | 37.93584 | 23.95484 | 282 ft | 27 kts | 223° |
| 2026-05-07 13:41 | 37.93484 | 23.95303 | 288 ft | 23 kts | 242° |
| 2026-05-07 13:41 | 37.93449 | 23.95207 | 295 ft | 8 kts | 245° |
| 2026-05-07 13:41 | 37.93420 | 23.95120 | 300 ft | 15 kts | 249° |
| 2026-05-07 13:41 | 37.93346 | 23.94992 | 301 ft | 19 kts | 225° |
| 2026-05-07 13:42 | 37.93241 | 23.94892 | 299 ft | 20 kts | 216° |
| 2026-05-07 13:42 | 37.93125 | 23.94784 | 302 ft | 22 kts | 218° |
| 2026-05-07 13:42 | 37.92997 | 23.94663 | 303 ft | 23 kts | 217° |
| 2026-05-07 13:42 | 37.92868 | 23.94540 | 302 ft | 20 kts | 215° |
| 2026-05-07 13:43 | 37.92841 | 23.94426 | 302 ft | 14 kts | 299° |
| 2026-05-07 13:43 | 37.92910 | 23.94310 | 301 ft | 18 kts | 308° |
| 2026-05-07 13:43 | 37.92975 | 23.94201 | 302 ft | 13 kts | 309° |
| 2026-05-07 13:43 | 37.93025 | 23.94183 | 301 ft | 8 kts | 28° |
| 2026-05-07 13:44 | 37.93059 | 23.94215 | 304 ft | 3 kts | 37° |
| 2026-05-07 13:44 | 37.93075 | 23.94230 | 302 ft | 1 kts | 37° |
| 2026-05-07 13:44 | 37.93076 | 23.94231 | 302 ft | 0 kts | 37° |